createdAt,value
2023-04-12T00:00:10.580Z,75.79
2023-04-12T00:02:40.526Z,75.34
2023-04-12T00:05:11.407Z,75.63
2023-04-12T00:07:39.716Z,75.74
2023-04-12T00:10:10.255Z,76.09
2023-04-12T00:12:38.414Z,76.24
2023-04-12T00:15:08.341Z,76.49
2023-04-12T00:17:36.687Z,76.34
2023-04-12T00:20:07.429Z,76.15
2023-04-12T00:22:36.940Z,75.46
2023-04-12T00:25:05.723Z,75.10
2023-04-12T00:27:33.917Z,75.15
2023-04-12T00:30:02.763Z,75.90
2023-04-12T00:32:31.112Z,75.85
2023-04-12T00:34:59.314Z,76.02
2023-04-12T00:37:27.414Z,76.23
2023-04-12T00:39:56.917Z,76.19
2023-04-12T00:42:25.036Z,76.40
2023-04-12T00:44:53.143Z,76.70
2023-04-12T00:47:21.510Z,76.83
2023-04-12T00:49:49.724Z,76.54
2023-04-12T00:52:18.365Z,76.97
2023-04-12T00:54:46.842Z,77.11
2023-04-12T00:57:16.446Z,77.00
2023-04-12T00:59:44.657Z,76.37
2023-04-12T01:02:12.860Z,76.17
2023-04-12T01:04:44.123Z,76.03
2023-04-12T01:07:24.283Z,76.34
2023-04-12T01:10:02.756Z,76.39
2023-04-12T01:12:48.496Z,76.58
2023-04-12T01:15:18.244Z,76.83
2023-04-12T01:18:02.613Z,76.42
2023-04-12T01:20:39.263Z,75.52
2023-04-12T01:23:41.587Z,75.84
2023-04-12T01:26:23.299Z,75.47
2023-04-12T01:28:56.479Z,76.06
2023-04-12T01:31:27.281Z,76.43
2023-04-12T01:33:58.298Z,75.72
2023-04-12T01:36:29.180Z,75.42
2023-04-12T01:38:59.021Z,75.67
2023-04-12T01:41:27.186Z,76.13
2023-04-12T01:43:56.952Z,76.58
2023-04-12T01:46:25.725Z,75.91
2023-04-12T01:48:55.909Z,75.44
2023-04-12T01:51:39.981Z,75.79
2023-04-12T01:54:13.100Z,75.84
2023-04-12T01:56:46.055Z,75.64
2023-04-12T01:59:17.183Z,75.92
2023-04-12T02:01:47.681Z,76.20
2023-04-12T02:04:18.421Z,75.94
2023-04-12T02:06:49.006Z,76.48
2023-04-12T02:09:17.125Z,76.49
2023-04-12T02:11:49.647Z,76.19
2023-04-12T02:14:19.186Z,76.06
2023-04-12T02:16:48.136Z,75.93
2023-04-12T02:19:16.462Z,75.58
2023-04-12T02:21:46.708Z,75.39
2023-04-12T02:24:15.726Z,75.05
2023-04-12T02:26:43.917Z,74.30
2023-04-12T02:29:13.064Z,74.36
2023-04-12T02:31:42.585Z,74.26
2023-04-12T02:34:10.739Z,73.50
2023-04-12T02:36:38.898Z,73.08
2023-04-12T02:39:07.644Z,73.34
2023-04-12T02:41:35.929Z,72.85
2023-04-12T02:44:04.017Z,72.87
2023-04-12T02:46:32.338Z,72.67
2023-04-12T02:49:01.867Z,72.36
2023-04-12T02:51:30.012Z,72.44
2023-04-12T02:53:58.420Z,71.64
2023-04-12T02:56:26.679Z,71.48
2023-04-12T02:58:54.796Z,71.40
2023-04-12T03:01:22.928Z,71.89
2023-04-12T03:03:51.156Z,71.73
2023-04-12T03:06:20.789Z,72.25
2023-04-12T03:08:48.920Z,72.14
2023-04-12T03:11:17.063Z,71.97
2023-04-12T03:13:45.145Z,71.82
2023-04-12T03:16:24.153Z,71.71
2023-04-12T03:18:52.626Z,71.73
2023-04-12T03:21:22.159Z,71.91
2023-04-12T03:23:50.241Z,71.64
2023-04-12T03:26:20.363Z,71.90
2023-04-12T03:28:49.095Z,71.62
2023-04-12T03:31:21.541Z,71.55
2023-04-12T03:33:49.842Z,71.31
2023-04-12T03:36:18.143Z,70.66
2023-04-12T03:38:47.660Z,70.86
2023-04-12T03:41:16.506Z,71.30
2023-04-12T03:43:47.208Z,71.20
2023-04-12T03:46:16.593Z,71.04
2023-04-12T03:48:44.995Z,71.36
2023-04-12T03:51:13.462Z,71.24
2023-04-12T03:53:41.911Z,71.24
2023-04-12T03:56:12.521Z,71.32
2023-04-12T03:58:40.623Z,71.73
2023-04-12T04:01:09.275Z,71.22
2023-04-12T04:03:37.915Z,71.09
2023-04-12T04:06:06.916Z,70.53
2023-04-12T04:08:35.462Z,70.90
2023-04-12T04:11:03.610Z,71.43
2023-04-12T04:13:33.103Z,71.22
2023-04-12T04:16:05.284Z,71.45
2023-04-12T04:18:35.761Z,71.55
2023-04-12T04:21:04.103Z,71.19
2023-04-12T04:23:38.452Z,70.92
2023-04-12T04:26:10.455Z,70.33
2023-04-12T04:28:42.204Z,70.80
2023-04-12T04:31:10.520Z,70.25
2023-04-12T04:33:39.936Z,69.78
2023-04-12T04:36:09.854Z,69.90
2023-04-12T04:38:38.147Z,69.50
2023-04-12T04:41:07.127Z,68.91
2023-04-12T04:43:35.667Z,68.53
2023-04-12T04:46:05.486Z,68.66
2023-04-12T04:48:33.931Z,68.40
2023-04-12T04:51:02.716Z,67.78
2023-04-12T04:53:31.152Z,67.57
2023-04-12T04:56:01.007Z,67.38
2023-04-12T04:58:29.223Z,67.66
2023-04-12T05:00:59.553Z,66.64
2023-04-12T05:03:30.779Z,66.81
2023-04-12T05:05:59.325Z,65.82
2023-04-12T05:08:28.548Z,65.48
2023-04-12T05:10:57.761Z,65.55
2023-04-12T05:13:26.073Z,65.69
2023-04-12T05:15:54.266Z,65.96
2023-04-12T05:18:22.507Z,65.65
2023-04-12T05:20:51.977Z,65.41
2023-04-12T05:23:20.128Z,65.82
2023-04-12T05:25:49.976Z,64.99
2023-04-12T05:28:18.618Z,64.93
2023-04-12T05:30:47.236Z,64.38
2023-04-12T05:33:15.735Z,64.82
2023-04-12T05:35:44.011Z,64.46
2023-04-12T05:38:13.757Z,65.13
2023-04-12T05:40:44.022Z,64.28
2023-04-12T05:43:12.856Z,63.53
2023-04-12T05:45:41.151Z,63.67
2023-04-12T05:48:09.906Z,64.27
2023-04-12T05:50:38.108Z,64.49
2023-04-12T05:53:06.295Z,63.89
2023-04-12T05:55:37.973Z,64.31
2023-04-12T05:58:06.516Z,63.84
2023-04-12T06:00:35.076Z,63.68
2023-04-12T06:03:03.811Z,63.33
2023-04-12T06:05:32.365Z,62.66
2023-04-12T06:08:00.843Z,63.14
2023-04-12T06:10:29.376Z,63.30
2023-04-12T06:12:58.871Z,62.35
2023-04-12T06:15:27.098Z,62.79
2023-04-12T06:17:55.439Z,61.97
2023-04-12T06:20:23.669Z,61.37
2023-04-12T06:22:51.816Z,61.07
2023-04-12T06:25:20.561Z,61.40
2023-04-12T06:27:48.721Z,61.52
2023-04-12T06:30:20.912Z,61.49
2023-04-12T06:32:49.351Z,60.92
2023-04-12T06:35:17.968Z,60.28
2023-04-12T06:37:46.274Z,59.81
2023-04-12T06:40:14.445Z,59.04
2023-04-12T06:42:42.581Z,59.32
2023-04-12T06:45:11.994Z,59.26
2023-04-12T06:47:41.766Z,58.82
2023-04-12T06:50:11.042Z,58.73
2023-04-12T06:52:39.202Z,59.24
2023-04-12T06:55:08.944Z,59.45
2023-04-12T06:57:37.098Z,59.13
2023-04-12T07:00:06.600Z,59.10
2023-04-12T07:02:34.930Z,58.56
2023-04-12T07:05:04.864Z,59.35
2023-04-12T07:07:33.280Z,59.71
2023-04-12T07:10:03.272Z,59.45
2023-04-12T07:12:31.506Z,59.68
2023-04-12T07:15:00.373Z,58.96
2023-04-12T07:17:28.493Z,58.60
2023-04-12T07:19:57.374Z,58.82
2023-04-12T07:22:26.857Z,58.54
2023-04-12T07:24:55.098Z,58.41
2023-04-12T07:27:24.074Z,58.30
2023-04-12T07:29:53.324Z,57.88
2023-04-12T07:32:21.651Z,58.07
2023-04-12T07:34:49.949Z,58.87
2023-04-12T07:37:19.180Z,58.84
2023-04-12T07:39:48.745Z,58.25
2023-04-12T07:42:17.315Z,57.74
2023-04-12T07:44:45.522Z,57.91
2023-04-12T07:47:13.914Z,57.90
2023-04-12T07:49:42.038Z,57.52
2023-04-12T07:52:10.225Z,57.59
2023-04-12T07:54:39.208Z,57.15
2023-04-12T07:57:09.834Z,57.16
2023-04-12T07:59:38.016Z,56.93
2023-04-12T08:02:06.712Z,56.76
2023-04-12T08:04:35.138Z,55.68
2023-04-12T08:07:03.288Z,55.65
2023-04-12T08:09:31.435Z,55.90
2023-04-12T08:11:59.588Z,54.82
2023-04-12T08:14:29.279Z,55.09
2023-04-12T08:16:57.677Z,54.24
2023-04-12T08:19:26.103Z,54.36
2023-04-12T08:21:55.055Z,53.86
2023-04-12T08:24:23.219Z,53.39
2023-04-12T08:26:52.232Z,53.70
2023-04-12T08:29:20.530Z,53.47
2023-04-12T08:31:50.168Z,53.64
2023-04-12T08:34:18.862Z,53.60
2023-04-12T08:36:47.368Z,52.62
2023-04-12T08:39:15.604Z,52.29
2023-04-12T08:41:44.898Z,50.93
2023-04-12T08:44:13.537Z,50.72
2023-04-12T08:46:42.272Z,50.80
2023-04-12T08:49:12.541Z,51.26
2023-04-12T08:51:43.676Z,50.50
2023-04-12T08:54:11.970Z,50.64
2023-04-12T08:56:44.078Z,50.74
2023-04-12T08:59:13.522Z,51.26
2023-04-12T09:01:43.235Z,50.96
2023-04-12T09:04:13.096Z,50.50
2023-04-12T09:06:41.499Z,50.14
2023-04-12T09:09:10.244Z,49.86
2023-04-12T09:11:38.607Z,49.64
2023-04-12T09:14:23.970Z,47.70
2023-04-12T09:16:52.768Z,47.07
2023-04-12T09:19:34.987Z,47.10
2023-04-12T09:22:04.062Z,47.70
2023-04-12T09:24:47.156Z,46.92
2023-04-12T09:27:15.499Z,47.12
2023-04-12T09:29:45.534Z,46.98
2023-04-12T09:32:13.697Z,47.72
2023-04-12T09:34:57.748Z,47.10
2023-04-12T09:37:26.269Z,47.45
2023-04-12T09:40:02.313Z,47.81
2023-04-12T09:42:33.664Z,48.31
2023-04-12T09:45:25.893Z,48.22
2023-04-12T09:47:58.581Z,47.86
2023-04-12T09:50:30.491Z,47.71
2023-04-12T09:53:00.034Z,47.60
2023-04-12T09:55:30.219Z,46.67
2023-04-12T09:58:05.782Z,45.83
2023-04-12T10:00:35.188Z,46.03
2023-04-12T10:03:11.147Z,45.97
2023-04-12T10:05:42.286Z,45.09
2023-04-12T10:08:15.319Z,44.38
2023-04-12T10:10:48.530Z,44.74
2023-04-12T10:13:37.385Z,44.50
2023-04-12T10:16:08.745Z,43.45
2023-04-12T10:18:38.092Z,43.45
2023-04-12T10:21:09.442Z,42.97
2023-04-12T10:23:38.714Z,42.85
2023-04-12T10:26:07.810Z,43.24
2023-04-12T10:28:36.227Z,42.92
2023-04-12T10:31:29.689Z,43.02
2023-04-12T10:33:58.470Z,42.99
2023-04-12T10:36:54.607Z,43.06
2023-04-12T10:39:48.265Z,43.46
2023-04-12T10:42:26.722Z,43.33
2023-04-12T10:45:00.985Z,42.88
2023-04-12T10:48:03.895Z,44.07
2023-04-12T10:50:35.103Z,43.97
2023-04-12T10:53:41.675Z,43.95
2023-04-12T10:56:41.049Z,43.35
2023-04-12T10:59:10.332Z,43.23
2023-04-12T11:01:40.314Z,44.06
2023-04-12T11:04:18.241Z,42.63
2023-04-12T11:07:11.679Z,42.71
2023-04-12T11:09:44.123Z,43.04
2023-04-12T11:12:16.739Z,42.16
2023-04-12T11:14:48.237Z,42.53
2023-04-12T11:17:24.734Z,42.63
2023-04-12T11:19:56.773Z,43.33
2023-04-12T11:22:29.025Z,42.67
2023-04-12T11:25:01.029Z,42.71
2023-04-12T11:27:31.795Z,42.48
2023-04-12T11:30:02.593Z,42.50
2023-04-12T11:32:33.973Z,42.81
2023-04-12T11:35:02.948Z,42.05
2023-04-12T11:37:32.524Z,43.50
2023-04-12T11:40:01.980Z,43.09
2023-04-12T11:42:30.593Z,43.86
2023-04-12T11:45:04.865Z,44.36
2023-04-12T11:47:43.496Z,43.82
2023-04-12T11:50:12.174Z,44.09
2023-04-12T11:52:41.231Z,44.72
2023-04-12T11:55:11.804Z,44.94
2023-04-12T11:57:40.586Z,45.88
2023-04-12T12:00:10.906Z,45.59
2023-04-12T12:02:48.878Z,46.06
2023-04-12T12:05:24.882Z,46.75
2023-04-12T12:07:54.081Z,46.90
2023-04-12T12:10:40.086Z,48.10
2023-04-12T12:13:22.458Z,48.15
2023-04-12T12:15:53.468Z,49.70
2023-04-12T12:18:29.963Z,50.84
2023-04-12T12:20:58.017Z,51.61
2023-04-12T12:23:31.447Z,51.57
2023-04-12T12:26:18.359Z,52.43
2023-04-12T12:28:51.828Z,53.55
2023-04-12T12:31:22.433Z,54.91
2023-04-12T12:33:56.774Z,54.61
2023-04-12T12:36:32.580Z,55.36
2023-04-12T12:39:09.259Z,57.64
2023-04-12T12:41:39.873Z,60.25
2023-04-12T12:44:08.645Z,63.15
2023-04-12T12:46:52.104Z,63.10
2023-04-12T12:49:21.976Z,64.88
2023-04-12T12:51:51.456Z,66.54
2023-04-12T12:54:32.222Z,66.67
2023-04-12T12:57:08.793Z,69.06
2023-04-12T12:59:37.012Z,70.20
2023-04-12T13:02:05.767Z,70.34
2023-04-12T13:04:34.145Z,71.89
2023-04-12T13:07:02.326Z,72.20
2023-04-12T13:09:32.552Z,70.90
2023-04-12T13:12:01.886Z,70.87
2023-04-12T13:14:31.517Z,70.49
2023-04-12T13:16:59.580Z,70.78
2023-04-12T13:19:27.654Z,70.84
2023-04-12T13:21:56.677Z,71.64
2023-04-12T13:24:24.722Z,71.60
2023-04-12T13:26:52.816Z,73.59
2023-04-12T13:29:20.998Z,73.53
2023-04-12T13:31:50.455Z,74.01
2023-04-12T13:34:18.568Z,73.36
2023-04-12T13:36:46.637Z,72.32
2023-04-12T13:39:14.746Z,72.05
2023-04-12T13:41:42.818Z,72.46
2023-04-12T13:44:11.012Z,72.50
2023-04-12T13:46:39.070Z,72.67
2023-04-12T13:49:08.490Z,73.21
2023-04-12T13:51:36.563Z,74.38
2023-04-12T13:54:05.859Z,74.94
2023-04-12T13:56:33.873Z,75.82
2023-04-12T13:59:02.378Z,77.37
2023-04-12T14:01:30.645Z,77.30
2023-04-12T14:03:58.784Z,78.03
2023-04-12T14:06:28.192Z,78.30
2023-04-12T14:08:56.649Z,78.34
2023-04-12T14:11:25.537Z,78.20
2023-04-12T14:13:54.398Z,76.91
2023-04-12T14:16:22.390Z,77.32
2023-04-12T14:18:50.416Z,78.03
2023-04-12T14:21:18.665Z,78.39
2023-04-12T14:23:48.044Z,78.70
2023-04-12T14:26:17.160Z,78.31
2023-04-12T14:28:45.266Z,79.39
2023-04-12T14:31:14.708Z,79.77
2023-04-12T14:33:42.877Z,79.98
2023-04-12T14:36:11.309Z,80.14
2023-04-12T14:38:39.384Z,79.01
2023-04-12T14:41:10.822Z,78.11
2023-04-12T14:43:38.978Z,77.67
2023-04-12T14:46:07.585Z,77.99
2023-04-12T14:48:35.731Z,78.59
2023-04-12T14:51:04.005Z,78.53
2023-04-12T14:53:32.269Z,78.47
2023-04-12T14:56:02.367Z,78.20
2023-04-12T14:58:31.953Z,77.85
2023-04-12T15:01:00.946Z,77.97
2023-04-12T15:03:33.246Z,78.80
2023-04-12T15:06:01.378Z,79.24
2023-04-12T15:08:29.714Z,79.61
2023-04-12T15:10:57.811Z,79.50
2023-04-12T15:13:32.501Z,79.88
2023-04-12T15:16:04.145Z,79.18
2023-04-12T15:18:32.236Z,78.55
2023-04-12T15:21:03.117Z,78.62
2023-04-12T15:23:33.009Z,78.69
2023-04-12T15:26:02.054Z,78.82
2023-04-12T15:28:30.418Z,78.67
2023-04-12T15:30:58.729Z,78.35
2023-04-12T15:33:28.219Z,76.99
2023-04-12T15:35:57.599Z,76.54
2023-04-12T15:38:25.924Z,76.18
2023-04-12T15:40:56.864Z,76.52
2023-04-12T15:43:25.985Z,76.08
2023-04-12T15:45:55.161Z,74.99
2023-04-12T15:48:25.575Z,75.68
2023-04-12T15:50:56.761Z,75.70
2023-04-12T15:53:27.973Z,75.75
2023-04-12T15:55:56.014Z,75.19
2023-04-12T15:58:24.911Z,75.52
2023-04-12T16:00:53.869Z,75.85
2023-04-12T16:03:23.252Z,75.84
2023-04-12T16:05:53.211Z,76.26
2023-04-12T16:08:23.041Z,76.84
2023-04-12T16:10:51.735Z,77.26
2023-04-12T16:13:20.531Z,75.49
2023-04-12T16:15:48.659Z,75.24
2023-04-12T16:18:18.110Z,75.84
2023-04-12T16:20:46.344Z,74.61
2023-04-12T16:23:16.631Z,75.26
2023-04-12T16:25:47.249Z,74.71
2023-04-12T16:28:17.952Z,74.35
2023-04-12T16:30:46.400Z,74.11
2023-04-12T16:33:14.467Z,73.43
2023-04-12T16:35:43.200Z,73.11
2023-04-12T16:38:13.322Z,73.85
2023-04-12T16:40:42.151Z,72.08
2023-04-12T16:43:11.677Z,72.57
2023-04-12T16:45:41.903Z,72.58
2023-04-12T16:48:10.005Z,72.58
2023-04-12T16:50:39.358Z,72.55
2023-04-12T16:53:08.461Z,71.15
2023-04-12T16:55:36.456Z,71.81
2023-04-12T16:58:04.500Z,72.81
2023-04-12T17:00:34.940Z,72.96
2023-04-12T17:03:03.153Z,73.06
2023-04-12T17:05:31.670Z,73.71
2023-04-12T17:07:59.916Z,74.09
2023-04-12T17:10:28.374Z,74.52
2023-04-12T17:12:58.377Z,73.84
2023-04-12T17:15:29.246Z,73.99
2023-04-12T17:18:05.265Z,74.09
2023-04-12T17:20:34.738Z,74.31
2023-04-12T17:23:03.493Z,74.40
2023-04-12T17:25:32.434Z,74.28
2023-04-12T17:28:02.097Z,74.38
2023-04-12T17:30:30.699Z,74.45
2023-04-12T17:33:01.262Z,74.58
2023-04-12T17:35:31.683Z,74.64
2023-04-12T17:37:59.796Z,74.71
2023-04-12T17:40:27.879Z,75.42
2023-04-12T17:42:56.090Z,75.45
2023-04-12T17:45:24.606Z,75.05
2023-04-12T17:47:54.460Z,75.52
2023-04-12T17:50:22.649Z,75.63
2023-04-12T17:52:52.159Z,75.99
2023-04-12T17:55:23.521Z,75.28
2023-04-12T17:57:52.450Z,76.11
2023-04-12T18:00:23.485Z,76.56
2023-04-12T18:02:51.843Z,77.14
2023-04-12T18:05:20.212Z,77.11
2023-04-12T18:07:48.309Z,77.85
2023-04-12T18:10:21.318Z,77.55
2023-04-12T18:12:50.118Z,77.11
2023-04-12T18:15:18.915Z,76.58
2023-04-12T18:17:47.062Z,76.92
2023-04-12T18:20:16.470Z,77.27
2023-04-12T18:22:45.937Z,76.54
2023-04-12T18:25:14.372Z,76.22
2023-04-12T18:27:47.273Z,75.71
2023-04-12T18:30:17.322Z,75.35
2023-04-12T18:32:45.631Z,76.10
2023-04-12T18:35:13.718Z,76.84
2023-04-12T18:37:43.554Z,77.18
2023-04-12T18:40:13.656Z,77.07
2023-04-12T18:42:43.986Z,76.03
2023-04-12T18:45:12.930Z,76.14
2023-04-12T18:47:42.086Z,76.76
2023-04-12T18:50:11.368Z,77.12
2023-04-12T18:52:39.462Z,77.04
2023-04-12T18:55:09.378Z,75.98
2023-04-12T18:57:37.452Z,77.02
2023-04-12T19:00:13.562Z,76.46
2023-04-12T19:02:42.176Z,76.57
2023-04-12T19:05:11.037Z,77.67
2023-04-12T19:07:39.285Z,77.78
2023-04-12T19:10:09.319Z,78.26
2023-04-12T19:12:38.149Z,79.52
2023-04-12T19:15:10.516Z,80.12
2023-04-12T19:17:39.038Z,80.31
2023-04-12T19:20:09.295Z,81.59
2023-04-12T19:22:37.555Z,82.47
2023-04-12T19:25:08.426Z,83.04
2023-04-12T19:27:37.041Z,83.70
2023-04-12T19:30:10.883Z,84.40
2023-04-12T19:32:39.395Z,84.88
2023-04-12T19:35:09.834Z,84.44
2023-04-12T19:37:38.204Z,84.87
2023-04-12T19:40:09.108Z,85.04
2023-04-12T19:42:37.273Z,84.55
2023-04-12T19:45:08.329Z,84.96
2023-04-12T19:47:36.978Z,85.82
2023-04-12T19:50:07.165Z,85.05
2023-04-12T19:52:35.536Z,86.28
2023-04-12T19:55:03.808Z,85.74
2023-04-12T19:57:32.809Z,85.54
2023-04-12T20:00:01.476Z,85.27
2023-04-12T20:02:31.270Z,86.14
2023-04-12T20:04:59.659Z,85.96
2023-04-12T20:07:28.026Z,86.83
2023-04-12T20:09:56.153Z,87.01
2023-04-12T20:12:24.532Z,88.22
2023-04-12T20:14:54.431Z,89.05
2023-04-12T20:17:22.743Z,89.67
2023-04-12T20:19:55.363Z,89.35
2023-04-12T20:22:24.093Z,88.84
2023-04-12T20:24:54.038Z,88.36
2023-04-12T20:27:23.178Z,88.81
2023-04-12T20:29:51.832Z,89.09
2023-04-12T20:32:20.243Z,88.14
2023-04-12T20:34:49.813Z,87.88
2023-04-12T20:37:19.923Z,88.67
2023-04-12T20:39:48.072Z,89.17
2023-04-12T20:42:20.333Z,88.84
2023-04-12T20:44:48.893Z,88.52
2023-04-12T20:47:18.722Z,88.89
2023-04-12T20:49:47.136Z,88.95
2023-04-12T20:52:18.604Z,89.19
2023-04-12T20:54:48.335Z,88.91
2023-04-12T20:57:19.538Z,88.68
2023-04-12T20:59:48.253Z,88.58
2023-04-12T21:02:16.607Z,88.40
2023-04-12T21:04:45.242Z,88.53
2023-04-12T21:07:14.234Z,88.41
2023-04-12T21:09:42.409Z,87.73
2023-04-12T21:12:12.139Z,87.83
2023-04-12T21:14:40.243Z,88.26
2023-04-12T21:17:08.964Z,88.78
2023-04-12T21:19:40.896Z,89.01
2023-04-12T21:22:09.394Z,89.01
2023-04-12T21:24:38.777Z,89.23
2023-04-12T21:27:08.489Z,89.07
2023-04-12T21:29:41.149Z,89.03
2023-04-12T21:32:10.790Z,89.88
2023-04-12T21:34:39.279Z,90.30
2023-04-12T21:37:07.618Z,89.71
2023-04-12T21:39:36.168Z,89.84
2023-04-12T21:42:04.511Z,90.39
2023-04-12T21:44:32.907Z,90.81
2023-04-12T21:47:02.376Z,91.13
2023-04-12T21:49:31.246Z,91.21
2023-04-12T21:51:59.409Z,91.69
2023-04-12T21:54:28.948Z,92.21
2023-04-12T21:56:57.321Z,92.63
2023-04-12T21:59:26.727Z,93.11
2023-04-12T22:01:54.897Z,93.37
2023-04-12T22:04:24.468Z,94.24
2023-04-12T22:06:52.819Z,94.88
2023-04-12T22:09:20.929Z,95.32
2023-04-12T22:11:49.045Z,95.48
2023-04-12T22:14:17.241Z,95.25
2023-04-12T22:16:45.443Z,94.71
2023-04-12T22:19:13.869Z,93.03
2023-04-12T22:21:43.322Z,92.08
2023-04-12T22:24:12.056Z,91.00
2023-04-12T22:26:40.180Z,88.86
2023-04-12T22:29:08.335Z,87.20
2023-04-12T22:31:38.391Z,86.39
2023-04-12T22:34:06.587Z,86.07
2023-04-12T22:36:37.279Z,85.97
2023-04-12T22:39:07.334Z,85.40
2023-04-12T22:41:37.888Z,83.72
2023-04-12T22:44:07.381Z,83.90
2023-04-12T22:46:38.874Z,84.11
2023-04-12T22:49:07.220Z,82.81
2023-04-12T22:51:35.432Z,82.55
2023-04-12T22:54:06.157Z,83.80
2023-04-12T22:56:41.664Z,84.75
2023-04-12T22:59:10.495Z,84.95
2023-04-12T23:01:38.888Z,85.10
2023-04-12T23:04:07.502Z,85.03
2023-04-12T23:06:35.625Z,84.87
2023-04-12T23:09:05.801Z,83.61
2023-04-12T23:11:38.618Z,81.50
2023-04-12T23:14:08.213Z,80.54
2023-04-12T23:16:38.851Z,81.47
2023-04-12T23:19:07.204Z,81.44
2023-04-12T23:21:36.187Z,81.41
2023-04-12T23:24:05.161Z,81.10
2023-04-12T23:26:34.497Z,79.81
2023-04-12T23:29:05.182Z,80.24
2023-04-12T23:31:33.739Z,80.70
2023-04-12T23:34:03.630Z,80.52
2023-04-12T23:36:32.307Z,80.31
2023-04-12T23:39:02.017Z,80.44
2023-04-12T23:41:32.237Z,80.72
2023-04-12T23:44:01.371Z,80.16
2023-04-12T23:46:31.207Z,80.45
2023-04-12T23:48:59.318Z,80.34
2023-04-12T23:51:27.860Z,80.37
2023-04-12T23:53:56.202Z,79.35
2023-04-12T23:56:24.388Z,79.53
2023-04-12T23:58:52.511Z,80.18
